Time;durP1;ratioP1;P1;durP2;ratioP2;P2;SDS_P1;SDS_P2;PMS_P1;PMS_P2;Temp;Humidity;BMP_temperature;BMP_pressure;BME280_temperature;BME280_humidity;BME280_pressure;Samples;Min_cycle;Max_cycle;Signal;HPM_P1;HPM_P2
2022/04/14 00:01:36;;;;;;;11.55;7.07;;;;;;;9.23;43.46;95292.81;5024829;28;20232;-65
2022/04/14 00:04:01;;;;;;;9.02;7.13;;;;;;;9.17;43.52;95296.00;5035483;28;20271;-66
2022/04/14 00:06:27;;;;;;;9.77;7.20;;;;;;;8.95;44.03;95286.56;5030740;28;20209;-66
2022/04/14 00:08:52;;;;;;;6.68;5.97;;;;;;;9.00;43.72;95285.19;5034105;28;20212;-65
2022/04/14 00:11:19;;;;;;;12.55;6.57;;;;;;;9.00;43.83;95294.84;5031638;28;20226;-66
2022/04/14 00:13:45;;;;;;;7.97;6.57;;;;;;;9.10;43.44;95290.44;5033424;28;20263;-66
2022/04/14 00:16:10;;;;;;;10.18;6.63;;;;;;;9.17;43.24;95296.00;5026884;28;20812;-67
2022/04/14 00:18:36;;;;;;;11.70;6.78;;;;;;;9.24;42.91;95287.41;5012596;28;20321;-65
2022/04/14 00:21:01;;;;;;;10.00;6.70;;;;;;;9.09;42.71;95278.31;5017125;28;20229;-66
2022/04/14 00:23:27;;;;;;;10.60;6.22;;;;;;;9.06;41.62;95283.81;5014321;28;20230;-67
2022/04/14 00:25:54;;;;;;;8.88;6.05;;;;;;;9.07;41.77;95282.84;5012284;28;20249;-66
2022/04/14 00:28:19;;;;;;;9.73;6.28;;;;;;;9.03;41.48;95281.44;5012818;28;20230;-66
2022/04/14 00:30:44;;;;;;;6.25;5.35;;;;;;;8.99;41.00;95280.09;5012087;28;20266;-66
2022/04/14 00:33:10;;;;;;;7.72;4.82;;;;;;;9.02;40.87;95282.44;5011437;28;20203;-65
2022/04/14 00:35:35;;;;;;;6.18;5.28;;;;;;;9.11;40.69;95278.97;5013016;28;20217;-66
2022/04/14 00:38:01;;;;;;;5.30;4.60;;;;;;;9.11;40.38;95293.91;5013632;28;20222;-66
2022/04/14 00:40:26;;;;;;;6.93;3.72;;;;;;;8.99;39.73;95290.56;5018002;28;20231;-66
2022/04/14 00:42:52;;;;;;;7.47;4.30;;;;;;;9.00;39.74;95292.22;5011664;28;20234;-65
2022/04/14 00:45:17;;;;;;;4.93;3.97;;;;;;;8.89;40.13;95285.31;5014746;28;20217;-65
2022/04/14 00:47:43;;;;;;;4.80;3.75;;;;;;;8.91;39.26;95288.63;5012700;28;20222;-65
2022/04/14 00:50:09;;;;;;;6.93;4.03;;;;;;;8.84;40.16;95287.50;5011988;28;20233;-65
2022/04/14 00:52:34;;;;;;;6.97;3.78;;;;;;;8.92;39.82;95287.66;5011237;28;20235;-65
2022/04/14 00:54:59;;;;;;;4.55;3.70;;;;;;;8.79;39.99;95282.69;5012514;28;20261;-67
2022/04/14 00:57:25;;;;;;;6.03;3.92;;;;;;;8.71;40.38;95292.97;5012369;28;20194;-67
2022/04/14 00:59:51;;;;;;;6.18;3.70;;;;;;;8.65;41.19;95287.44;5012837;28;20217;-66
2022/04/14 01:02:16;;;;;;;6.82;4.28;;;;;;;8.44;42.05;95290.13;5017141;28;20234;-67
2022/04/14 01:04:43;;;;;;;6.80;4.38;;;;;;;8.41;42.36;95298.25;5015498;28;20234;-67
2022/04/14 01:07:09;;;;;;;7.37;3.97;;;;;;;8.20;43.14;95300.88;5011356;28;20254;-67
2022/04/14 01:09:36;;;;;;;6.80;5.83;;;;;;;8.34;44.28;95296.13;5010868;28;20312;-66
2022/04/14 01:12:03;;;;;;;9.67;6.27;;;;;;;8.25;44.90;95302.16;5014180;28;20228;-67
2022/04/14 01:14:34;;;;;;;8.65;4.95;;;;;;;8.19;44.80;95300.06;5017350;28;20235;-67
2022/04/14 01:17:04;;;;;;;9.53;6.00;;;;;;;8.08;45.40;95302.75;5018629;28;20246;-67
2022/04/14 01:19:30;;;;;;;8.40;5.50;;;;;;;8.14;45.40;95308.28;5013868;28;20329;-66
2022/04/14 01:22:21;;;;;;;6.23;5.47;;;;;;;8.26;44.99;95305.59;5015666;28;20292;-66
2022/04/14 01:24:47;;;;;;;10.30;5.00;;;;;;;8.25;44.58;95307.38;5012146;28;20234;-66
2022/04/14 01:27:13;;;;;;;6.97;4.73;;;;;;;8.25;44.23;95311.81;5013317;28;20214;-67
2022/04/14 01:29:38;;;;;;;7.23;4.87;;;;;;;7.99;44.78;95309.56;5013010;28;20213;-66
2022/04/14 01:32:05;;;;;;;8.43;4.33;;;;;;;7.90;45.14;95307.75;5016043;28;20336;-66
2022/04/14 01:34:30;;;;;;;9.90;4.40;;;;;;;7.99;44.29;95314.81;5015544;28;20222;-66
2022/04/14 01:37:00;;;;;;;6.70;4.50;;;;;;;7.93;43.82;95308.31;5021066;28;20257;-66
2022/04/14 01:39:27;;;;;;;7.90;4.30;;;;;;;7.85;43.76;95313.34;5018438;28;20199;-66
2022/04/14 01:41:52;;;;;;;5.67;3.60;;;;;;;8.01;43.49;95310.28;5014539;28;20304;-66
2022/04/14 01:44:18;;;;;;;9.33;4.30;;;;;;;7.93;43.71;95297.84;5019154;28;20226;-66
2022/04/14 01:46:43;;;;;;;6.97;3.97;;;;;;;7.90;43.27;95297.28;5023059;28;20223;-66
2022/04/14 01:49:09;;;;;;;5.70;3.63;;;;;;;7.80;42.89;95301.59;5024855;28;20224;-66
2022/04/14 01:51:35;;;;;;;6.15;4.65;;;;;;;7.86;42.73;95304.56;5017129;28;20222;-64
2022/04/14 01:54:01;;;;;;;6.93;4.83;;;;;;;7.71;42.84;95309.28;5014761;28;20216;-67
2022/04/14 01:56:27;;;;;;;5.60;4.90;;;;;;;7.81;42.82;95308.53;5017191;28;20322;-67
2022/04/14 01:58:53;;;;;;;7.03;4.07;;;;;;;7.81;42.25;95314.59;5016056;28;20321;-67
2022/04/14 02:01:19;;;;;;;5.60;4.53;;;;;;;7.77;42.05;95312.34;5019312;28;20226;-67
2022/04/14 02:03:44;;;;;;;6.53;4.00;;;;;;;7.77;41.51;95317.56;5020626;28;20253;-67
2022/04/14 02:06:10;;;;;;;6.00;4.53;;;;;;;7.88;40.98;95315.72;5037050;28;20241;-67
2022/04/14 02:08:35;;;;;;;6.20;4.10;;;;;;;7.90;41.46;95318.22;5034304;28;20212;-66
2022/04/14 02:11:04;;;;;;;4.43;3.33;;;;;;;7.81;40.77;95319.81;5015775;28;20236;-67
2022/04/14 02:13:31;;;;;;;7.93;3.37;;;;;;;7.84;40.51;95321.34;5033074;28;20307;-67
2022/04/14 02:15:56;;;;;;;4.97;3.50;;;;;;;7.85;40.61;95326.44;5033343;28;20233;-66
2022/04/14 02:18:22;;;;;;;5.17;3.77;;;;;;;7.69;40.93;95320.81;5039966;28;20232;-66
2022/04/14 02:20:47;;;;;;;4.70;3.67;;;;;;;7.71;40.89;95321.53;5038919;28;20222;-68
2022/04/14 02:23:12;;;;;;;5.97;3.53;;;;;;;7.72;41.94;95312.72;5033452;28;21338;-67
2022/04/14 02:25:38;;;;;;;5.33;3.40;;;;;;;7.78;41.23;95308.75;5039013;28;20253;-66
2022/04/14 02:28:03;;;;;;;5.63;3.57;;;;;;;7.77;41.23;95307.94;5039081;28;20225;-67
2022/04/14 02:30:29;;;;;;;5.40;4.10;;;;;;;7.70;41.37;95309.41;5037965;28;20233;-66
2022/04/14 02:32:54;;;;;;;6.33;3.80;;;;;;;7.56;42.38;95304.47;5037465;28;20220;-66
2022/04/14 02:35:20;;;;;;;5.00;4.03;;;;;;;7.58;41.89;95292.91;5032297;28;20368;-67
2022/04/14 02:37:46;;;;;;;6.83;4.17;;;;;;;7.44;42.39;95301.91;5033411;28;20248;-67
2022/04/14 02:40:13;;;;;;;4.70;3.20;;;;;;;7.34;42.37;95305.41;5039336;28;20233;-67
2022/04/14 02:42:40;;;;;;;5.33;3.50;;;;;;;7.29;42.37;95296.13;5037616;28;20242;-67
2022/04/14 02:45:06;;;;;;;5.03;3.77;;;;;;;7.22;42.68;95304.63;5037340;28;20217;-67
2022/04/14 02:47:31;;;;;;;3.87;3.30;;;;;;;7.17;42.86;95304.16;5036362;28;20228;-67
2022/04/14 02:49:57;;;;;;;4.40;3.80;;;;;;;7.26;43.05;95304.22;5036190;28;20230;-67
2022/04/14 02:52:22;;;;;;;6.43;3.60;;;;;;;7.22;42.98;95310.69;5035265;28;20283;-67
2022/04/14 02:54:48;;;;;;;6.53;3.87;;;;;;;7.04;44.17;95318.22;5035627;28;20310;-66
2022/04/14 02:57:13;;;;;;;5.67;3.87;;;;;;;7.09;43.84;95317.84;5038327;28;20206;-67
2022/04/14 02:59:38;;;;;;;7.00;4.10;;;;;;;7.04;44.23;95323.44;5040531;28;20205;-66
2022/04/14 03:02:05;;;;;;;6.20;3.73;;;;;;;7.09;44.48;95319.63;5034806;28;20224;-67
2022/04/14 03:04:30;;;;;;;9.67;4.63;;;;;;;6.94;46.23;95321.69;5040167;28;20228;-66
2022/04/14 03:06:56;;;;;;;8.77;4.80;;;;;;;6.96;46.73;95312.75;5031999;28;20229;-66
2022/04/14 03:09:22;;;;;;;7.63;4.20;;;;;;;6.87;45.98;95312.66;5035376;28;20209;-66
2022/04/14 03:11:48;;;;;;;5.73;4.17;;;;;;;6.95;46.16;95311.13;5037349;28;20247;-66
2022/04/14 03:14:13;;;;;;;7.30;4.50;;;;;;;6.82;46.46;95324.31;5042270;28;20221;-66
2022/04/14 03:16:39;;;;;;;6.30;4.40;;;;;;;6.80;46.33;95322.78;5037365;28;20349;-64
2022/04/14 03:19:04;;;;;;;4.70;4.17;;;;;;;6.82;45.95;95328.72;5035118;28;20234;-64
2022/04/14 03:21:30;;;;;;;5.80;4.47;;;;;;;6.82;46.52;95326.13;5041540;28;20222;-64
2022/04/14 03:23:55;;;;;;;5.73;4.57;;;;;;;6.78;46.80;95330.72;5034967;28;20213;-65
2022/04/14 03:26:21;;;;;;;6.77;4.97;;;;;;;6.77;46.70;95333.47;5036321;28;20240;-65
2022/04/14 03:28:46;;;;;;;7.00;4.70;;;;;;;6.80;47.06;95333.25;5036661;28;20229;-65
2022/04/14 03:31:12;;;;;;;11.10;4.93;;;;;;;6.74;47.20;95329.31;5035121;28;20228;-65
2022/04/14 03:34:08;;;;;;;;;;;;;;;;;;;;;
2022/04/14 03:36:23;;;;;;;11.97;5.20;;;;;;;6.63;47.97;95331.97;5037544;28;20208;-65
2022/04/14 03:38:48;;;;;;;8.90;5.20;;;;;;;6.60;48.12;95332.16;5037181;28;20251;-66
2022/04/14 03:41:14;;;;;;;10.73;5.23;;;;;;;6.50;48.30;95326.84;5038491;28;20226;-66
2022/04/14 03:43:39;;;;;;;7.07;5.40;;;;;;;6.51;48.77;95331.13;5035084;28;20226;-65
2022/04/14 03:46:05;;;;;;;6.67;4.93;;;;;;;6.36;49.35;95334.91;5035084;28;20217;-65
2022/04/14 03:48:30;;;;;;;8.90;5.40;;;;;;;6.37;49.93;95336.59;5034003;28;20333;-65
2022/04/14 03:50:56;;;;;;;14.07;6.60;;;;;;;6.30;50.13;95336.22;5040324;28;20213;-64
2022/04/14 03:53:22;;;;;;;10.23;6.27;;;;;;;6.44;49.74;95352.59;5035967;28;20256;-65
2022/04/14 03:55:47;;;;;;;16.17;6.83;;;;;;;6.40;49.50;95358.06;5034055;28;20240;-65
2022/04/14 03:58:14;;;;;;;13.73;6.80;;;;;;;6.38;49.91;95359.13;5035387;28;20230;-64
2022/04/14 04:00:41;;;;;;;9.30;6.53;;;;;;;6.28;50.32;95361.63;5033426;28;20233;-66
2022/04/14 04:03:12;;;;;;;13.50;7.37;;;;;;;6.29;50.96;95352.84;5030408;28;20213;-65
2022/04/14 04:05:38;;;;;;;10.40;7.00;;;;;;;6.39;50.23;95358.19;5035601;28;20245;-66
2022/04/14 04:08:05;;;;;;;14.33;7.43;;;;;;;6.38;50.22;95354.72;5035204;28;20221;-66
2022/04/14 04:10:30;;;;;;;13.70;7.60;;;;;;;6.40;50.65;95349.41;5032836;28;20248;-66
2022/04/14 04:12:56;;;;;;;8.40;6.43;;;;;;;6.48;49.50;95346.19;5037116;28;20217;-66
2022/04/14 04:15:21;;;;;;;9.53;7.20;;;;;;;6.40;49.54;95342.41;5029927;28;20236;-66
2022/04/14 04:17:47;;;;;;;11.13;8.07;;;;;;;6.29;49.97;95352.00;5033910;28;20281;-65
2022/04/14 04:20:13;;;;;;;10.50;7.93;;;;;;;6.36;49.95;95345.34;5021803;28;20222;-66
2022/04/14 04:22:38;;;;;;;10.90;7.40;;;;;;;6.39;50.12;95355.59;5025420;28;20300;-65
2022/04/14 04:25:04;;;;;;;11.73;7.60;;;;;;;6.46;50.20;95361.97;5016315;28;20230;-65
2022/04/14 04:27:30;;;;;;;16.17;8.38;;;;;;;6.54;49.97;95364.00;5014305;28;20238;-65
2022/04/14 04:29:56;;;;;;;18.17;8.97;;;;;;;6.46;49.90;95361.97;5018458;28;20198;-65
2022/04/14 04:32:21;;;;;;;10.73;8.10;;;;;;;6.48;49.64;95365.31;5016119;28;20217;-65
2022/04/14 04:34:47;;;;;;;12.03;8.70;;;;;;;6.43;49.92;95367.44;5009342;28;20246;-64
2022/04/14 04:37:12;;;;;;;13.10;7.83;;;;;;;6.35;50.59;95370.66;5013081;28;20281;-65
2022/04/14 04:39:38;;;;;;;11.13;7.93;;;;;;;6.50;50.58;95373.03;5020368;28;20233;-67
2022/04/14 04:42:03;;;;;;;15.30;8.10;;;;;;;6.65;50.72;95391.91;5017040;28;20228;-68
2022/04/14 04:44:29;;;;;;;16.53;8.20;;;;;;;6.83;50.53;95393.09;5012728;28;20269;-67
2022/04/14 04:46:54;;;;;;;18.43;8.90;;;;;;;6.85;50.27;95391.22;5018930;28;20225;-66
2022/04/14 04:49:20;;;;;;;16.73;8.40;;;;;;;6.95;49.95;95393.91;5011491;28;20285;-67
2022/04/14 04:51:45;;;;;;;19.37;8.57;;;;;;;7.04;49.32;95399.28;5017087;28;20283;-67
2022/04/14 04:54:10;;;;;;;13.97;8.03;;;;;;;6.83;49.69;95400.94;5030053;28;20319;-65
2022/04/14 04:56:36;;;;;;;13.77;8.17;;;;;;;6.97;48.98;95412.94;5033582;28;20197;-66
2022/04/14 04:59:02;;;;;;;16.73;8.13;;;;;;;6.80;49.51;95412.47;5031299;28;20229;-67
2022/04/14 05:01:28;;;;;;;13.40;8.70;;;;;;;6.86;49.40;95413.78;5033118;28;20225;-67
2022/04/14 05:03:53;;;;;;;12.63;8.87;;;;;;;6.86;49.43;95416.38;5028348;28;20245;-67
2022/04/14 05:06:18;;;;;;;11.40;9.23;;;;;;;6.97;49.23;95418.16;5014203;28;20205;-67
2022/04/14 05:08:44;;;;;;;13.37;9.50;;;;;;;7.19;48.75;95427.75;5021307;28;20214;-67
2022/04/14 05:11:09;;;;;;;15.93;9.00;;;;;;;7.35;48.25;95428.25;5029320;28;20344;-67
2022/04/14 05:13:35;;;;;;;14.20;9.00;;;;;;;7.31;48.12;95421.56;5032265;28;20221;-64
2022/04/14 05:16:02;;;;;;;13.33;9.90;;;;;;;7.30;48.29;95422.53;5040052;28;20249;-67
2022/04/14 05:18:28;;;;;;;12.87;9.07;;;;;;;7.41;48.17;95422.50;5030798;28;20237;-67
2022/04/14 05:20:53;;;;;;;17.57;10.40;;;;;;;7.49;47.65;95421.91;5039670;28;20217;-68
2022/04/14 05:23:19;;;;;;;31.83;21.93;;;;;;;7.45;47.92;95421.28;5032674;28;20240;-67
2022/04/14 05:25:44;;;;;;;20.03;12.97;;;;;;;7.47;48.14;95421.19;5029054;28;20226;-67
2022/04/14 05:28:10;;;;;;;14.90;9.20;;;;;;;7.65;47.85;95421.50;5031424;28;20263;-67
2022/04/14 05:30:35;;;;;;;15.67;9.73;;;;;;;7.72;47.25;95425.28;5030299;28;20282;-67
2022/04/14 05:33:01;;;;;;;26.67;15.73;;;;;;;7.82;47.27;95420.13;5020655;28;20224;-66
2022/04/14 05:35:27;;;;;;;53.83;38.87;;;;;;;8.05;46.63;95426.94;5021312;28;20252;-67
2022/04/14 05:37:52;;;;;;;15.13;12.00;;;;;;;8.18;46.29;95432.00;5033181;28;20229;-67
2022/04/14 05:40:18;;;;;;;17.47;10.20;;;;;;;8.22;45.85;95433.41;5036923;28;20232;-67
2022/04/14 05:42:46;;;;;;;17.50;10.80;;;;;;;8.27;46.09;95430.41;5031989;28;20248;-67
2022/04/14 05:45:13;;;;;;;17.63;9.57;;;;;;;8.31;45.56;95431.78;5036065;28;20202;-66
2022/04/14 05:47:39;;;;;;;15.77;8.97;;;;;;;8.26;46.12;95440.06;5041585;28;20210;-67
2022/04/14 05:50:05;;;;;;;14.10;8.97;;;;;;;8.40;45.75;95433.69;5033894;28;20295;-66
2022/04/14 05:52:30;;;;;;;15.93;9.00;;;;;;;8.49;45.98;95437.31;5025895;28;20308;-66
2022/04/14 05:54:58;;;;;;;10.38;8.80;;;;;;;8.53;45.78;95444.81;5018015;28;20232;-66
2022/04/14 05:57:23;;;;;;;13.18;8.27;;;;;;;8.54;45.15;95433.34;5022292;28;20223;-66
2022/04/14 05:59:49;;;;;;;10.93;7.60;;;;;;;8.72;44.21;95438.84;5009393;28;20277;-66
2022/04/14 06:02:14;;;;;;;9.27;7.23;;;;;;;8.90;42.80;95448.72;5010970;28;20223;-66
2022/04/14 06:04:40;;;;;;;12.73;7.57;;;;;;;8.86;43.45;95436.84;5017674;28;20286;-66
2022/04/14 06:07:05;;;;;;;19.80;8.13;;;;;;;9.01;42.75;95440.78;5023822;28;20222;-67
2022/04/14 06:09:31;;;;;;;12.30;6.57;;;;;;;9.03;41.09;95451.94;5037094;28;20272;-65
2022/04/14 06:11:56;;;;;;;9.27;5.83;;;;;;;9.07;40.95;95442.88;5013573;28;20202;-64
2022/04/14 06:14:22;;;;;;;10.47;5.30;;;;;;;9.10;41.63;95447.84;5010479;28;20258;-65
2022/04/14 06:16:47;;;;;;;8.70;5.97;;;;;;;9.27;41.22;95444.63;5017490;28;20284;-65
2022/04/14 06:19:13;;;;;;;11.90;6.60;;;;;;;9.19;41.02;95441.78;5017455;28;20222;-65
2022/04/14 06:21:38;;;;;;;9.18;6.97;;;;;;;9.63;40.67;95450.22;5020273;28;20233;-64
2022/04/14 06:24:07;;;;;;;10.17;6.60;;;;;;;9.55;40.85;95442.19;5034536;28;20220;-66
2022/04/14 06:26:33;;;;;;;12.05;7.13;;;;;;;9.58;40.32;95444.53;5021233;28;20222;-65
2022/04/14 06:28:58;;;;;;;8.35;6.25;;;;;;;9.61;40.05;95439.00;5006517;28;20227;-67
2022/04/14 06:31:24;;;;;;;7.55;5.35;;;;;;;9.72;40.00;95444.13;5019641;28;20244;-66
2022/04/14 06:33:49;;;;;;;11.17;6.47;;;;;;;9.79;39.85;95446.25;5029191;28;20230;-67
2022/04/14 06:36:14;;;;;;;9.32;6.10;;;;;;;9.87;39.85;95439.34;5029272;28;20208;-66
2022/04/14 06:38:40;;;;;;;8.63;7.03;;;;;;;9.88;39.65;95442.78;5030696;28;20193;-66
2022/04/14 06:41:05;;;;;;;11.98;8.05;;;;;;;10.00;39.44;95444.31;5027762;28;20217;-66
2022/04/14 06:43:31;;;;;;;13.77;8.05;;;;;;;10.04;39.09;95437.00;5032928;28;20260;-64
2022/04/14 06:45:58;;;;;;;8.70;6.20;;;;;;;10.13;39.38;95446.66;5035300;28;20226;-71
2022/04/14 06:48:23;;;;;;;9.95;6.82;;;;;;;10.22;38.75;95453.72;5029705;28;20193;-70
2022/04/14 06:50:49;;;;;;;14.15;7.32;;;;;;;10.25;38.87;95450.00;5030577;28;20198;-66
2022/04/14 06:53:16;;;;;;;10.70;7.95;;;;;;;10.37;38.89;95448.88;5014893;28;20218;-66
2022/04/14 06:55:45;;;;;;;12.70;8.15;;;;;;;10.38;38.73;95443.50;5017037;28;20246;-67
2022/04/14 06:58:11;;;;;;;14.95;8.18;;;;;;;10.39;38.53;95452.22;5010121;28;20306;-70
2022/04/14 07:00:36;;;;;;;11.60;7.30;;;;;;;10.49;38.49;95450.41;5012471;28;20309;-68
2022/04/14 07:03:02;;;;;;;12.25;7.68;;;;;;;10.62;38.26;95462.44;5021456;28;20209;-67
2022/04/14 07:05:28;;;;;;;12.05;8.57;;;;;;;10.68;38.00;95459.25;5030286;28;20222;-67
2022/04/14 07:07:53;;;;;;;12.85;7.18;;;;;;;10.69;37.72;95459.13;5030408;28;20226;-70
2022/04/14 07:10:19;;;;;;;10.73;7.03;;;;;;;10.70;38.07;95465.19;5033295;28;20268;-69
2022/04/14 07:12:46;;;;;;;11.55;7.72;;;;;;;10.79;37.47;95466.97;5035169;28;20221;-71
2022/04/14 07:15:12;;;;;;;10.90;7.60;;;;;;;10.70;37.17;95463.41;5036136;28;20201;-69
2022/04/14 07:17:38;;;;;;;11.55;8.30;;;;;;;10.72;37.44;95463.22;5037605;28;20249;-70
2022/04/14 07:20:05;;;;;;;12.18;7.68;;;;;;;10.87;38.05;95461.81;5022695;28;20233;-65
2022/04/14 07:22:44;;;;;;;12.57;8.35;;;;;;;10.94;37.29;95460.28;5020786;28;20226;-65
2022/04/14 07:25:10;;;;;;;11.40;7.82;;;;;;;11.02;36.58;95454.31;5023592;28;20284;-66
2022/04/14 07:27:36;;;;;;;11.77;7.97;;;;;;;11.07;36.30;95462.59;5037400;28;20213;-70
2022/04/14 07:30:03;;;;;;;11.07;7.10;;;;;;;11.14;35.88;95455.78;5035305;28;20221;-69
2022/04/14 07:32:37;;;;;;;14.07;7.35;;;;;;;11.14;35.95;95460.22;5035940;28;20252;-68
2022/04/14 07:35:04;;;;;;;12.70;7.82;;;;;;;11.23;35.98;95456.72;5039444;28;20214;-66
2022/04/14 07:37:30;;;;;;;11.27;7.90;;;;;;;11.29;36.24;95447.41;5037865;28;20260;-70
2022/04/14 07:39:56;;;;;;;12.65;7.93;;;;;;;11.37;36.15;95450.97;5034062;28;20229;-70
2022/04/14 07:42:21;;;;;;;11.57;8.10;;;;;;;11.45;35.99;95458.16;5033620;28;20237;-69
2022/04/14 07:44:47;;;;;;;12.48;7.82;;;;;;;11.43;35.88;95441.66;5039907;28;20284;-68
2022/04/14 07:47:12;;;;;;;13.70;7.28;;;;;;;11.47;36.02;95437.78;5034910;28;20312;-69
2022/04/14 07:49:37;;;;;;;13.50;8.45;;;;;;;11.62;35.65;95431.00;5039392;28;20317;-69
2022/04/14 07:52:03;;;;;;;9.40;7.47;;;;;;;11.59;35.21;95435.75;5040552;28;20273;-67
2022/04/14 07:54:29;;;;;;;13.93;7.93;;;;;;;11.69;35.51;95426.81;5035491;28;20276;-68
2022/04/14 07:56:56;;;;;;;11.45;7.88;;;;;;;11.78;35.48;95430.34;5043578;28;20285;-67
2022/04/14 07:59:21;;;;;;;12.32;7.63;;;;;;;11.84;35.50;95426.28;5034293;28;20309;-71
2022/04/14 08:01:49;;;;;;;10.32;7.32;;;;;;;11.95;35.50;95428.78;5035442;28;20320;-69
2022/04/14 08:04:15;;;;;;;14.55;7.43;;;;;;;12.10;34.91;95421.97;5030868;28;20228;-68
2022/04/14 08:06:41;;;;;;;13.43;7.72;;;;;;;12.17;35.49;95427.47;5038117;28;20281;-69
2022/04/14 08:09:06;;;;;;;10.52;7.75;;;;;;;12.24;34.66;95430.31;5040404;28;20209;-71
2022/04/14 08:11:33;;;;;;;13.40;7.72;;;;;;;12.31;34.56;95429.56;5035068;28;20257;-72
2022/04/14 08:13:59;;;;;;;12.10;7.35;;;;;;;12.26;35.00;95428.38;5020502;28;20332;-70
2022/04/14 08:16:24;;;;;;;9.95;6.35;;;;;;;12.37;33.79;95425.50;5015297;28;20225;-69
2022/04/14 08:18:50;;;;;;;11.90;5.93;;;;;;;12.41;33.41;95426.03;5020912;28;20241;-69
2022/04/14 08:21:15;;;;;;;10.43;6.53;;;;;;;12.60;33.33;95433.75;5034878;28;20276;-69
2022/04/14 08:23:41;;;;;;;10.43;6.55;;;;;;;12.66;33.94;95427.03;5040111;28;20218;-66
2022/04/14 08:26:10;;;;;;;9.13;6.38;;;;;;;12.81;33.74;95430.78;5035078;28;20484;-69
2022/04/14 08:28:40;;;;;;;13.20;6.80;;;;;;;12.71;34.24;95430.03;5038590;28;20233;-68
2022/04/14 08:31:07;;;;;;;9.30;6.45;;;;;;;12.76;33.61;95428.59;5032584;28;20257;-66
2022/04/14 08:33:32;;;;;;;10.68;6.32;;;;;;;12.82;34.74;95424.50;5039338;28;20252;-66
2022/04/14 08:35:59;;;;;;;12.05;6.13;;;;;;;12.86;34.14;95425.84;5031763;28;20246;-66
2022/04/14 08:38:25;;;;;;;9.68;6.97;;;;;;;13.02;33.93;95428.59;5032939;28;20224;-68
2022/04/14 08:40:58;;;;;;;8.90;6.85;;;;;;;13.12;33.53;95428.44;5030580;28;20217;-66
2022/04/14 08:43:32;;;;;;;7.72;6.18;;;;;;;13.15;33.36;95427.31;5030208;28;20222;-72
2022/04/14 08:45:59;;;;;;;7.93;5.97;;;;;;;13.09;33.46;95431.41;5020721;28;20221;-67
2022/04/14 08:48:26;;;;;;;8.27;6.32;;;;;;;13.16;33.18;95418.44;5025532;28;20206;-69
2022/04/14 08:50:53;;;;;;;8.98;6.22;;;;;;;13.44;32.53;95416.41;5031505;28;20201;-68
2022/04/14 08:53:24;;;;;;;8.00;5.38;;;;;;;13.44;31.67;95411.97;5034990;28;20229;-69
2022/04/14 08:55:50;;;;;;;9.35;5.57;;;;;;;13.39;31.70;95414.28;5035997;28;20308;-68
2022/04/14 08:58:19;;;;;;;8.55;5.28;;;;;;;13.44;32.30;95416.41;5036961;28;20233;-69
2022/04/14 09:00:45;;;;;;;8.77;5.53;;;;;;;13.52;32.26;95407.69;5053895;28;20291;-67
2022/04/14 09:03:15;;;;;;;8.70;5.03;;;;;;;13.61;32.61;95396.19;5042137;28;20271;-65
2022/04/14 09:05:42;;;;;;;6.43;5.03;;;;;;;13.71;31.44;95401.31;5034003;28;20306;-64
2022/04/14 09:08:08;;;;;;;7.85;5.25;;;;;;;13.82;32.29;95390.41;5031581;28;20282;-66
2022/04/14 09:10:36;;;;;;;6.82;5.05;;;;;;;13.89;31.79;95384.31;5031292;28;20248;-65
2022/04/14 09:13:02;;;;;;;9.82;5.82;;;;;;;13.87;31.85;95382.84;5033878;28;20240;-66
2022/04/14 09:15:27;;;;;;;7.55;5.88;;;;;;;13.92;31.40;95383.19;5036644;28;20202;-64
2022/04/14 09:17:54;;;;;;;6.72;4.93;;;;;;;13.98;32.53;95390.47;5035379;28;20244;-69
2022/04/14 09:20:41;;;;;;;8.43;5.07;;;;;;;14.23;31.25;95379.91;5042042;28;20308;-63
2022/04/14 09:23:21;;;;;;;9.88;4.60;;;;;;;14.43;29.74;95386.50;5029479;28;20221;-61
2022/04/14 09:25:53;;;;;;;5.63;3.42;;;;;;;14.44;27.52;95387.34;5029900;28;20312;-67
2022/04/14 09:28:20;;;;;;;10.52;4.22;;;;;;;14.44;27.40;95390.00;5037270;28;20316;-63
2022/04/14 09:31:08;;;;;;;9.48;3.85;;;;;;;14.54;27.29;95383.56;5041908;28;20225;-63
2022/04/14 09:33:45;;;;;;;6.03;4.53;;;;;;;14.75;28.46;95384.84;5040574;28;20308;-66
2022/04/14 09:36:15;;;;;;;7.20;4.38;;;;;;;15.08;28.43;95382.13;5038598;28;20366;-65
2022/04/14 09:39:02;;;;;;;8.52;3.78;;;;;;;15.24;26.53;95378.59;5039180;28;20239;-66
2022/04/14 09:41:39;;;;;;;5.85;3.58;;;;;;;15.27;26.22;95376.44;5034197;28;20221;-66
2022/04/14 09:44:10;;;;;;;5.55;3.40;;;;;;;15.36;25.53;95377.22;5018339;28;20229;-63
2022/04/14 09:46:38;;;;;;;5.07;2.80;;;;;;;15.37;24.92;95378.84;5017696;28;20226;-65
2022/04/14 09:49:11;;;;;;;4.15;3.42;;;;;;;15.46;24.72;95356.63;5020263;28;20240;-60
2022/04/14 09:51:44;;;;;;;4.10;2.95;;;;;;;15.54;25.14;95363.72;5028050;28;20229;-64
2022/04/14 09:54:17;;;;;;;3.88;2.78;;;;;;;15.79;24.15;95357.28;5017671;28;20209;-63
2022/04/14 09:56:53;;;;;;;4.72;3.28;;;;;;;15.82;24.42;95356.09;5026914;28;20285;-64
2022/04/14 09:59:20;;;;;;;3.17;2.75;;;;;;;15.97;23.93;95356.19;5016739;28;20246;-62
2022/04/14 10:01:47;;;;;;;4.93;2.67;;;;;;;16.01;24.04;95347.72;5026676;28;20861;-61
2022/04/14 10:04:32;;;;;;;4.22;2.42;;;;;;;16.11;23.24;95347.44;5039270;28;20217;-64
2022/04/14 10:07:14;;;;;;;2.50;2.30;;;;;;;16.25;23.40;95346.69;5037715;28;20228;-62
2022/04/14 10:09:42;;;;;;;5.00;3.20;;;;;;;16.51;23.69;95340.97;5042001;28;20233;-68
2022/04/14 10:12:17;;;;;;;5.10;2.38;;;;;;;16.73;23.65;95346.41;5036263;28;20237;-63
2022/04/14 10:14:56;;;;;;;3.78;2.70;;;;;;;16.76;23.16;95338.09;5034583;28;20789;-60
2022/04/14 10:17:26;;;;;;;3.90;2.20;;;;;;;16.81;24.06;95335.72;5034644;28;20240;-64
2022/04/14 10:19:52;;;;;;;5.03;2.47;;;;;;;16.98;22.40;95331.88;5033949;28;20226;-66
2022/04/14 10:22:19;;;;;;;3.10;2.58;;;;;;;17.05;22.42;95333.81;5039396;28;20769;-63
2022/04/14 10:24:45;;;;;;;3.85;2.78;;;;;;;17.25;22.47;95331.41;5039287;28;20247;-63
2022/04/14 10:27:13;;;;;;;4.30;2.80;;;;;;;17.24;22.64;95340.38;5040702;28;20210;-61
2022/04/14 10:29:40;;;;;;;3.88;2.70;;;;;;;17.37;22.23;95341.41;5040798;28;20206;-62
2022/04/14 10:32:07;;;;;;;3.53;2.40;;;;;;;17.35;21.91;95340.75;5033766;28;20230;-60
2022/04/14 10:34:34;;;;;;;2.92;2.10;;;;;;;17.52;21.33;95324.59;5035573;28;20218;-69
2022/04/14 10:37:02;;;;;;;5.32;2.65;;;;;;;17.64;21.45;95323.06;5036879;28;20243;-66
2022/04/14 10:39:31;;;;;;;5.68;3.00;;;;;;;17.54;21.65;95331.38;5034615;28;20202;-69
2022/04/14 10:41:57;;;;;;;4.70;2.67;;;;;;;17.34;21.50;95332.94;5041710;28;20205;-69
2022/04/14 10:44:23;;;;;;;7.40;2.85;;;;;;;17.40;21.90;95324.22;5040823;28;20283;-67
2022/04/14 10:46:51;;;;;;;2.22;2.03;;;;;;;17.64;21.48;95326.56;5038213;28;20210;-58
2022/04/14 10:49:32;;;;;;;3.75;2.50;;;;;;;17.79;20.98;95331.03;5041614;28;20230;-61
2022/04/14 10:52:27;;;;;;;3.28;2.30;;;;;;;17.93;20.83;95330.16;5040341;28;20231;-65
2022/04/14 10:55:00;;;;;;;4.78;2.70;;;;;;;18.08;20.85;95322.94;5038801;28;20257;-64
2022/04/14 10:57:40;;;;;;;2.65;2.33;;;;;;;18.26;21.06;95327.00;5041412;28;20202;-63
2022/04/14 11:00:31;;;;;;;3.38;2.53;;;;;;;18.50;20.76;95331.09;5040987;28;20201;-72
2022/04/14 11:03:11;;;;;;;3.45;2.50;;;;;;;18.79;20.90;95323.94;5014303;28;20222;-64
2022/04/14 11:05:56;;;;;;;2.50;2.20;;;;;;;19.00;20.45;95320.38;5015609;28;20222;-62
2022/04/14 11:08:29;;;;;;;2.47;2.28;;;;;;;18.81;20.21;95325.38;5031587;28;20295;-61
2022/04/14 11:11:11;;;;;;;3.88;3.08;;;;;;;18.54;20.29;95321.69;5018459;28;20236;-66
2022/04/14 11:13:55;;;;;;;6.07;2.80;;;;;;;18.89;20.44;95319.91;5027530;28;20222;-63
2022/04/14 11:16:44;;;;;;;3.92;2.83;;;;;;;19.15;20.38;95313.06;5021737;28;20250;-62
2022/04/14 11:19:19;;;;;;;4.15;3.10;;;;;;;19.25;20.08;95318.88;5029319;28;20285;-60
2022/04/14 11:22:13;;;;;;;5.85;3.63;;;;;;;19.49;20.14;95312.19;5024362;28;20230;-68
2022/04/14 11:24:41;;;;;;;4.63;2.75;;;;;;;19.58;19.30;95304.84;5018087;28;20248;-63
2022/04/14 11:27:12;;;;;;;5.13;2.92;;;;;;;19.57;19.44;95305.88;5033742;28;20205;-68
2022/04/14 11:29:39;;;;;;;5.60;3.05;;;;;;;19.68;19.52;95312.50;5021650;28;20233;-72
2022/04/14 11:32:05;;;;;;;5.72;3.17;;;;;;;19.80;19.66;95300.19;5029969;28;20260;-64
2022/04/14 11:34:32;;;;;;;3.50;3.15;;;;;;;20.01;19.36;95317.91;5031606;28;20233;-64
2022/04/14 11:36:59;;;;;;;4.13;3.20;;;;;;;19.96;18.82;95307.00;5038451;28;20230;-64
2022/04/14 11:39:25;;;;;;;4.57;2.97;;;;;;;19.75;19.35;95305.31;5028304;28;20202;-65